Time,TemperatureF,DewpointF,PressureIn,WindDirection,WindDirectionDegrees,WindSpeedMPH,WindSpeedGustMPH,Humidity,HourlyPrecipIn,Conditions,Clouds,dailyrainin,SolarRadiationWatts/m^2,SoftwareType,DateUTC
2013-05-11 00:08:00,49.1,46.6,30.12,NE,44,0.0,0.0,91,0.00,,,0.00,0,Wunderground v.1.15,2013-05-11 05:08:00,
2013-05-11 00:13:00,49.0,46.5,30.12,NE,44,0.0,0.0,91,0.00,,,0.00,0,Wunderground v.1.15,2013-05-11 05:13:00,
2013-05-11 00:18:00,48.8,46.3,30.13,NE,43,0.0,0.0,91,0.00,,,0.00,0,Wunderground v.1.15,2013-05-11 05:18:00,
2013-05-11 00:28:00,48.7,46.5,30.13,NE,44,0.0,0.0,92,0.00,,,0.00,0,Wunderground v.1.15,2013-05-11 05:28:00,
2013-05-11 00:33:00,48.6,46.4,30.13,NE,44,0.0,0.0,92,0.00,,,0.00,0,Wunderground v.1.15,2013-05-11 05:33:00,
2013-05-11 00:43:00,48.3,46.1,30.13,NE,44,0.0,0.0,92,0.00,,,0.00,0,Wunderground v.1.15,2013-05-11 05:43:00,
2013-05-11 00:53:00,47.9,45.7,30.14,NE,43,0.0,0.0,92,0.00,,,0.00,0,Wunderground v.1.15,2013-05-11 05:53:00,
2013-05-11 00:58:00,47.9,45.7,30.14,NE,43,0.0,0.0,92,0.00,,,0.00,0,Wunderground v.1.15,2013-05-11 05:58:00,
2013-05-11 01:08:00,47.9,46.0,30.14,NE,44,0.0,0.0,93,0.00,,,0.00,0,Wunderground v.1.15,2013-05-11 06:08:00,
2013-05-11 01:18:00,48.1,46.5,30.14,NE,43,0.0,0.0,94,0.00,,,0.00,0,Wunderground v.1.15,2013-05-11 06:18:00,
2013-05-11 01:28:00,47.9,46.3,30.14,NE,43,0.0,0.0,94,0.00,,,0.00,0,Wunderground v.1.15,2013-05-11 06:28:00,
2013-05-11 01:38:00,47.7,46.1,30.15,NE,43,0.0,0.0,94,0.00,,,0.00,0,Wunderground v.1.15,2013-05-11 06:38:00,
2013-05-11 01:43:00,47.6,46.0,30.15,NE,44,0.0,1.0,94,0.00,,,0.00,0,Wunderground v.1.15,2013-05-11 06:43:00,
2013-05-11 01:53:00,47.4,45.8,30.15,NE,43,0.0,1.0,94,0.00,,,0.00,0,Wunderground v.1.15,2013-05-11 06:53:00,
2013-05-11 02:03:00,47.3,45.7,30.15,NE,44,0.0,1.0,94,0.00,,,0.00,0,Wunderground v.1.15,2013-05-11 07:03:00,
2013-05-11 02:13:00,47.2,45.6,30.15,NE,43,0.0,0.0,94,0.00,,,0.00,0,Wunderground v.1.15,2013-05-11 07:13:00,
2013-05-11 02:18:00,47.2,45.6,30.15,NE,43,0.0,0.0,94,0.00,,,0.00,0,Wunderground v.1.15,2013-05-11 07:18:00,
2013-05-11 02:28:00,46.9,45.3,30.14,NE,44,0.0,0.0,94,0.00,,,0.00,0,Wunderground v.1.15,2013-05-11 07:28:00,
2013-05-11 02:38:00,46.7,45.1,30.14,NE,43,0.0,0.0,94,0.00,,,0.00,0,Wunderground v.1.15,2013-05-11 07:38:00,
2013-05-11 02:48:00,46.8,45.4,30.14,NE,44,0.0,0.0,95,0.00,,,0.00,0,Wunderground v.1.15,2013-05-11 07:48:00,
2013-05-11 02:58:00,46.8,45.4,30.14,NE,44,0.0,0.0,95,0.00,,,0.00,0,Wunderground v.1.15,2013-05-11 07:58:00,
2013-05-11 03:03:00,46.8,45.4,30.14,NE,44,0.0,0.0,95,0.00,,,0.00,0,Wunderground v.1.15,2013-05-11 08:03:00,
2013-05-11 03:13:00,46.8,45.4,30.14,NE,43,0.0,0.0,95,0.00,,,0.00,0,Wunderground v.1.15,2013-05-11 08:13:00,
2013-05-11 03:23:00,46.8,45.4,30.14,NE,44,0.0,0.0,95,0.00,,,0.00,0,Wunderground v.1.15,2013-05-11 08:23:00,
2013-05-11 03:33:00,46.7,45.3,30.14,NE,43,0.0,0.0,95,0.00,,,0.00,0,Wunderground v.1.15,2013-05-11 08:33:00,
2013-05-11 03:38:00,46.6,45.2,30.14,NE,43,0.0,0.0,95,0.00,,,0.00,0,Wunderground v.1.15,2013-05-11 08:38:00,
2013-05-11 03:48:00,46.5,45.1,30.13,NE,43,0.0,0.0,95,0.00,,,0.00,0,Wunderground v.1.15,2013-05-11 08:48:00,
2013-05-11 03:58:00,46.4,45.0,30.13,NE,44,0.0,0.0,95,0.00,,,0.00,0,Wunderground v.1.15,2013-05-11 08:58:00,
2013-05-11 04:07:00,46.4,45.0,30.14,NE,44,0.0,0.0,95,0.00,,,0.00,0,Wunderground v.1.15,2013-05-11 09:07:00,
2013-05-11 04:17:00,46.6,45.2,30.13,NE,44,0.0,0.0,95,0.00,,,0.00,0,Wunderground v.1.15,2013-05-11 09:17:00,
2013-05-11 04:27:00,46.8,45.4,30.13,NE,43,0.0,0.0,95,0.00,,,0.00,0,Wunderground v.1.15,2013-05-11 09:27:00,
2013-05-11 04:37:00,47.0,45.6,30.13,NE,43,0.0,0.0,95,0.00,,,0.00,0,Wunderground v.1.15,2013-05-11 09:37:00,
2013-05-11 04:47:00,47.1,45.7,30.13,NE,43,0.0,0.0,95,0.00,,,0.00,0,Wunderground v.1.15,2013-05-11 09:47:00,
2013-05-11 04:57:00,47.1,45.7,30.12,NE,44,0.0,0.0,95,0.00,,,0.00,0,Wunderground v.1.15,2013-05-11 09:57:00,
2013-05-11 05:02:00,47.1,45.7,30.12,NE,44,0.0,0.0,95,0.00,,,0.00,0,Wunderground v.1.15,2013-05-11 10:02:00,
2013-05-11 05:07:00,47.0,45.6,30.12,NE,44,0.0,0.0,95,0.00,,,0.00,0,Wunderground v.1.15,2013-05-11 10:07:00,
2013-05-11 05:17:00,47.2,46.1,30.12,SE,132,0.0,1.0,96,0.00,,,0.00,0,Wunderground v.1.15,2013-05-11 10:17:00,
2013-05-11 05:27:00,47.3,46.2,30.12,SSE,163,0.0,0.0,96,0.00,,,0.00,0,Wunderground v.1.15,2013-05-11 10:27:00,
2013-05-11 05:37:00,47.4,46.3,30.12,SSW,193,0.0,3.0,96,0.00,,,0.00,0,Wunderground v.1.15,2013-05-11 10:37:00,
2013-05-11 05:42:00,47.4,46.3,30.12,SSW,195,1.0,3.0,96,0.00,,,0.00,0,Wunderground v.1.15,2013-05-11 10:42:00,
2013-05-11 05:52:00,47.6,46.5,30.12,SSW,195,2.0,2.0,96,0.00,,,0.00,0,Wunderground v.1.15,2013-05-11 10:52:00,
2013-05-11 06:02:00,47.8,46.7,30.13,SSW,195,2.0,3.0,96,0.00,,,0.00,0,Wunderground v.1.15,2013-05-11 11:02:00,
2013-05-11 06:12:00,48.0,46.9,30.13,SSW,195,1.0,2.0,96,0.00,,,0.00,9,Wunderground v.1.15,2013-05-11 11:12:00,
2013-05-11 06:18:00,48.1,47.0,30.13,SSW,195,0.0,1.0,96,0.00,,,0.00,12,Wunderground v.1.15,2013-05-11 11:18:00,
2013-05-11 06:28:00,48.1,47.0,30.14,SSW,196,0.0,0.0,96,0.00,,,0.00,30,Wunderground v.1.15,2013-05-11 11:28:00,
2013-05-11 06:33:00,48.3,47.2,30.14,WSW,246,1.0,1.0,96,0.00,,,0.00,39,Wunderground v.1.15,2013-05-11 11:33:00,
2013-05-11 06:43:00,48.6,47.5,30.14,WSW,246,1.0,1.0,96,0.00,,,0.00,63,Wunderground v.1.15,2013-05-11 11:43:00,
2013-05-11 06:53:00,49.0,47.9,30.14,WSW,250,0.0,1.0,96,0.00,,,0.00,95,Wunderground v.1.15,2013-05-11 11:53:00,
2013-05-11 06:58:00,49.4,48.3,30.14,WSW,255,2.0,2.0,96,0.00,,,0.00,105,Wunderground v.1.15,2013-05-11 11:58:00,
2013-05-11 07:08:00,50.0,49.2,30.14,West,261,2.0,2.0,97,0.00,,,0.00,132,Wunderground v.1.15,2013-05-11 12:08:00,
2013-05-11 07:18:00,50.8,50.0,30.14,West,266,2.0,2.0,97,0.00,,,0.00,162,Wunderground v.1.15,2013-05-11 12:18:00,
2013-05-11 07:28:00,51.5,50.7,30.14,West,279,2.0,2.0,97,0.00,,,0.00,188,Wunderground v.1.15,2013-05-11 12:28:00,
2013-05-11 07:38:00,52.2,51.1,30.14,West,274,2.0,5.0,96,0.00,,,0.00,220,Wunderground v.1.15,2013-05-11 12:38:00,
2013-05-11 07:43:00,52.8,51.7,30.15,WNW,292,3.0,5.0,96,0.00,,,0.00,236,Wunderground v.1.15,2013-05-11 12:43:00,
2013-05-11 07:53:00,54.1,51.8,30.14,West,267,2.0,3.0,92,0.00,,,0.00,267,Wunderground v.1.15,2013-05-11 12:53:00,
2013-05-11 08:03:00,55.3,51.5,30.14,NW,305,2.0,4.0,87,0.00,,,0.00,297,Wunderground v.1.15,2013-05-11 13:03:00,
2013-05-11 08:13:00,56.6,51.5,30.14,NW,304,3.0,4.0,83,0.00,,,0.00,327,Wunderground v.1.15,2013-05-11 13:13:00,
2013-05-11 08:23:00,57.5,51.7,30.15,NW,304,4.0,4.0,81,0.00,,,0.00,371,Wunderground v.1.15,2013-05-11 13:23:00,
2013-05-11 08:28:00,58.0,51.9,30.15,NNW,347,4.0,4.0,80,0.00,,,0.00,392,Wunderground v.1.15,2013-05-11 13:28:00,
2013-05-11 08:38:00,58.8,52.0,30.15,WNW,298,5.0,5.0,78,0.00,,,0.00,427,Wunderground v.1.15,2013-05-11 13:38:00,
2013-05-11 08:48:00,60.2,52.2,30.15,WNW,295,6.0,6.0,75,0.00,,,0.00,461,Wunderground v.1.15,2013-05-11 13:48:00,
2013-05-11 08:58:00,61.4,52.7,30.15,NNW,337,5.0,5.0,73,0.00,,,0.00,494,Wunderground v.1.15,2013-05-11 13:58:00,
2013-05-11 09:03:00,61.5,51.6,30.16,NW,323,8.0,8.0,70,0.00,,,0.00,510,Wunderground v.1.15,2013-05-11 14:03:00,
2013-05-11 09:13:00,61.7,52.6,30.16,NW,322,7.0,12.0,72,0.00,,,0.00,538,Wunderground v.1.15,2013-05-11 14:13:00,
2013-05-11 09:23:00,62.0,52.9,30.16,NW,322,6.0,12.0,72,0.00,,,0.00,564,Wunderground v.1.15,2013-05-11 14:23:00,
2013-05-11 09:33:00,61.6,52.1,30.17,NW,306,9.0,9.0,71,0.00,,,0.00,594,Wunderground v.1.15,2013-05-11 14:33:00,
2013-05-11 09:43:00,61.2,51.3,30.17,NNW,348,11.0,14.0,70,0.00,,,0.00,626,Wunderground v.1.15,2013-05-11 14:43:00,
2013-05-11 09:48:00,61.1,51.2,30.17,NW,321,12.0,12.0,70,0.00,,,0.00,643,Wunderground v.1.15,2013-05-11 14:48:00,
2013-05-11 09:58:00,61.1,49.7,30.18,NW,313,12.0,12.0,66,0.00,,,0.00,677,Wunderground v.1.15,2013-05-11 14:58:00,
2013-05-11 10:03:00,61.0,49.6,30.18,NNW,343,12.0,12.0,66,0.00,,,0.00,698,Wunderground v.1.15,2013-05-11 15:03:00,
2013-05-11 10:13:00,61.4,48.7,30.19,NNW,329,11.0,11.0,63,0.00,,,0.00,724,Wunderground v.1.15,2013-05-11 15:13:00,
2013-05-11 10:23:00,62.0,48.0,30.18,NNW,331,9.0,16.0,60,0.00,,,0.00,758,Wunderground v.1.15,2013-05-11 15:23:00,
2013-05-11 10:33:00,62.4,44.5,30.19,NW,325,11.0,11.0,52,0.00,,,0.00,784,Wunderground v.1.15,2013-05-11 15:33:00,
2013-05-11 10:43:00,62.5,46.1,30.20,NNW,341,11.0,13.0,55,0.00,,,0.00,807,Wunderground v.1.15,2013-05-11 15:43:00,
2013-05-11 10:53:00,62.6,44.2,30.20,NNW,344,11.0,15.0,51,0.00,,,0.00,835,Wunderground v.1.15,2013-05-11 15:53:00,
2013-05-11 10:58:00,62.9,44.0,30.20,WNW,302,10.0,10.0,50,0.00,,,0.00,844,Wunderground v.1.15,2013-05-11 15:58:00,
2013-05-11 11:08:00,62.3,40.1,30.21,NNW,342,13.0,17.0,44,0.00,,,0.00,868,Wunderground v.1.15,2013-05-11 16:08:00,
2013-05-11 11:13:00,62.3,40.7,30.21,North,355,12.0,17.0,45,0.00,,,0.00,879,Wunderground v.1.15,2013-05-11 16:13:00,
2013-05-11 11:23:00,62.2,39.4,30.21,North,351,13.0,15.0,43,0.00,,,0.00,905,Wunderground v.1.15,2013-05-11 16:23:00,
2013-05-11 11:33:00,62.5,39.7,30.22,NE,42,13.0,13.0,43,0.00,,,0.00,928,Wunderground v.1.15,2013-05-11 16:33:00,
2013-05-11 11:43:00,62.6,39.8,30.22,NW,325,11.0,15.0,43,0.00,,,0.00,946,Wunderground v.1.15,2013-05-11 16:43:00,
2013-05-11 11:48:00,63.0,40.1,30.22,NE,36,11.0,11.0,43,0.00,,,0.00,953,Wunderground v.1.15,2013-05-11 16:48:00,
2013-05-11 11:58:00,63.6,39.5,30.22,NNE,19,10.0,11.0,41,0.00,,,0.00,969,Wunderground v.1.15,2013-05-11 16:58:00,
2013-05-11 12:07:00,63.1,37.7,30.22,NNE,23,11.0,16.0,39,0.00,,,0.00,984,Wunderground v.1.15,2013-05-11 17:07:00,
2013-05-11 12:13:00,62.9,36.9,30.22,North,355,12.0,16.0,38,0.00,,,0.00,991,Wunderground v.1.15,2013-05-11 17:13:00,
2013-05-11 12:23:00,62.7,38.0,30.22,North,355,13.0,14.0,40,0.00,,,0.00,998,Wunderground v.1.15,2013-05-11 17:23:00,
2013-05-11 12:32:00,62.9,37.5,30.22,North,5,11.0,12.0,39,0.00,,,0.00,1007,Wunderground v.1.15,2013-05-11 17:32:00,
2013-05-11 12:42:00,62.8,36.1,30.23,NNW,336,13.0,14.0,37,0.00,,,0.00,1016,Wunderground v.1.15,2013-05-11 17:42:00,
2013-05-11 12:47:00,62.7,33.9,30.23,North,9,14.0,14.0,34,0.00,,,0.00,1021,Wunderground v.1.15,2013-05-11 17:47:00,
2013-05-11 12:57:00,63.0,37.0,30.23,NW,323,12.0,20.0,38,0.00,,,0.00,1018,Wunderground v.1.15,2013-05-11 17:57:00,
2013-05-11 13:07:00,63.7,38.9,30.23,NW,311,10.0,18.0,40,0.00,,,0.00,1020,Wunderground v.1.15,2013-05-11 18:07:00,
2013-05-11 13:12:00,63.5,37.4,30.23,NE,38,10.0,18.0,38,0.00,,,0.00,1021,Wunderground v.1.15,2013-05-11 18:12:00,
2013-05-11 13:17:00,63.7,38.9,30.23,NW,320,10.0,12.0,40,0.00,,,0.00,1018,Wunderground v.1.15,2013-05-11 18:17:00,
2013-05-11 13:27:00,63.5,38.1,30.23,North,5,12.0,12.0,39,0.00,,,0.00,1018,Wunderground v.1.15,2013-05-11 18:27:00,
2013-05-11 13:37:00,63.3,38.6,30.24,North,360,13.0,13.0,40,0.00,,,0.00,1013,Wunderground v.1.15,2013-05-11 18:37:00,
2013-05-11 13:47:00,63.7,36.9,30.24,NW,325,10.0,10.0,37,0.00,,,0.00,1009,Wunderground v.1.15,2013-05-11 18:47:00,
2013-05-11 13:52:00,63.6,36.1,30.24,North,5,10.0,10.0,36,0.00,,,0.00,1004,Wunderground v.1.15,2013-05-11 18:52:00,
2013-05-11 14:02:00,63.6,36.8,30.24,NNW,329,11.0,14.0,37,0.00,,,0.00,1002,Wunderground v.1.15,2013-05-11 19:02:00,
2013-05-11 14:13:00,63.6,36.1,30.24,NNW,338,12.0,12.0,36,0.00,,,0.00,990,Wunderground v.1.15,2013-05-11 19:13:00,
2013-05-11 14:18:00,63.5,35.3,30.24,North,5,13.0,14.0,35,0.00,,,0.00,983,Wunderground v.1.15,2013-05-11 19:18:00,
2013-05-11 14:23:00,63.6,35.4,30.24,NW,311,13.0,14.0,35,0.00,,,0.00,976,Wunderground v.1.15,2013-05-11 19:23:00,
2013-05-11 14:33:00,64.4,36.8,30.25,NNW,332,10.0,10.0,36,0.00,,,0.00,969,Wunderground v.1.15,2013-05-11 19:33:00,
2013-05-11 14:43:00,63.9,35.7,30.24,North,350,13.0,18.0,35,0.00,,,0.00,953,Wunderground v.1.15,2013-05-11 19:43:00,
2013-05-11 14:48:00,64.2,34.5,30.24,NNW,334,12.0,12.0,33,0.00,,,0.00,947,Wunderground v.1.15,2013-05-11 19:48:00,
2013-05-11 14:58:00,64.0,35.8,30.25,NNW,344,12.0,14.0,35,0.00,,,0.00,926,Wunderground v.1.15,2013-05-11 19:58:00,
2013-05-11 15:08:00,63.8,33.4,30.25,North,350,13.0,13.0,32,0.00,,,0.00,904,Wunderground v.1.15,2013-05-11 20:08:00,
2013-05-11 15:13:00,63.6,33.2,30.25,NNW,333,14.0,14.0,32,0.00,,,0.00,891,Wunderground v.1.15,2013-05-11 20:13:00,
2013-05-11 15:23:00,64.4,36.8,30.25,North,355,10.0,14.0,36,0.00,,,0.00,872,Wunderground v.1.15,2013-05-11 20:23:00,
2013-05-11 15:33:00,64.5,35.5,30.25,NNW,331,11.0,14.0,34,0.00,,,0.00,849,Wunderground v.1.15,2013-05-11 20:33:00,
2013-05-11 15:43:00,64.4,34.6,30.24,NNE,23,10.0,16.0,33,0.00,,,0.00,826,Wunderground v.1.15,2013-05-11 20:43:00,
2013-05-11 15:48:00,64.0,35.0,30.25,NNW,336,12.0,12.0,34,0.00,,,0.00,809,Wunderground v.1.15,2013-05-11 20:48:00,
2013-05-11 15:53:00,64.1,35.9,30.24,NW,312,11.0,12.0,35,0.00,,,0.00,796,Wunderground v.1.15,2013-05-11 20:53:00,
2013-05-11 16:03:00,64.1,33.6,30.24,NNE,21,12.0,18.0,32,0.00,,,0.00,773,Wunderground v.1.15,2013-05-11 21:03:00,
2013-05-11 16:13:00,64.1,35.9,30.24,NW,307,11.0,13.0,35,0.00,,,0.00,744,Wunderground v.1.15,2013-05-11 21:13:00,
2013-05-11 16:23:00,64.3,37.5,30.24,NW,315,9.0,11.0,37,0.00,,,0.00,717,Wunderground v.1.15,2013-05-11 21:23:00,
2013-05-11 16:28:00,64.5,35.5,30.24,NNW,340,10.0,10.0,34,0.00,,,0.00,698,Wunderground v.1.15,2013-05-11 21:28:00,
2013-05-11 16:38:00,64.1,36.6,30.24,WNW,300,10.0,10.0,36,0.00,,,0.00,671,Wunderground v.1.15,2013-05-11 21:38:00,
2013-05-11 16:45:00,64.3,36.8,30.24,WNW,296,9.0,15.0,36,0.00,,,0.00,647,Wunderground v.1.15,2013-05-11 21:45:00,
2013-05-11 16:55:00,63.9,34.2,30.24,North,355,11.0,13.0,33,0.00,,,0.00,613,Wunderground v.1.15,2013-05-11 21:55:00,
2013-05-11 17:00:00,63.9,35.0,30.24,North,360,12.0,12.0,34,0.00,,,0.00,598,Wunderground v.1.15,2013-05-11 22:00:00,
2013-05-11 17:10:00,64.1,34.4,30.24,NNE,14,9.0,9.0,33,0.00,,,0.00,568,Wunderground v.1.15,2013-05-11 22:10:00,
2013-05-11 17:15:00,63.8,34.1,30.24,NW,323,10.0,10.0,33,0.00,,,0.00,552,Wunderground v.1.15,2013-05-11 22:15:00,
2013-05-11 17:25:00,63.8,34.1,30.24,NNW,335,9.0,10.0,33,0.00,,,0.00,515,Wunderground v.1.15,2013-05-11 22:25:00,
2013-05-11 17:35:00,63.7,34.0,30.24,NW,309,8.0,9.0,33,0.00,,,0.00,482,Wunderground v.1.15,2013-05-11 22:35:00,
2013-05-11 17:40:00,63.6,33.9,30.24,North,9,10.0,13.0,33,0.00,,,0.00,462,Wunderground v.1.15,2013-05-11 22:40:00,
2013-05-11 17:50:00,63.4,33.0,30.24,NW,319,10.0,10.0,32,0.00,,,0.00,429,Wunderground v.1.15,2013-05-11 22:50:00,
2013-05-11 18:00:00,63.3,34.4,30.24,NNW,344,8.0,10.0,34,0.00,,,0.00,392,Wunderground v.1.15,2013-05-11 23:00:00,
2013-05-11 18:10:00,63.2,35.1,30.24,WNW,303,8.0,8.0,35,0.00,,,0.00,357,Wunderground v.1.15,2013-05-11 23:10:00,
2013-05-11 18:20:00,63.0,33.4,30.24,NW,311,8.0,14.0,33,0.00,,,0.00,322,Wunderground v.1.15,2013-05-11 23:20:00,
2013-05-11 18:25:00,62.6,32.3,30.24,NW,323,10.0,14.0,32,0.00,,,0.00,302,Wunderground v.1.15,2013-05-11 23:25:00,
2013-05-11 18:35:00,62.4,31.3,30.24,NW,325,8.0,11.0,31,0.00,,,0.00,265,Wunderground v.1.15,2013-05-11 23:35:00,
2013-05-11 18:45:00,62.0,31.8,30.25,NNW,348,8.0,11.0,32,0.00,,,0.00,232,Wunderground v.1.15,2013-05-11 23:45:00,
2013-05-11 18:55:00,61.8,33.1,30.25,NNW,332,8.0,13.0,34,0.00,,,0.00,197,Wunderground v.1.15,2013-05-11 23:55:00,
2013-05-11 19:00:00,61.6,32.9,30.25,NW,307,9.0,9.0,34,0.00,,,0.00,181,Wunderground v.1.15,2013-05-12 00:00:00,
2013-05-11 19:10:00,61.1,33.2,30.25,NNW,333,6.0,6.0,35,0.00,,,0.00,148,Wunderground v.1.15,2013-05-12 00:10:00,
2013-05-11 19:20:00,60.7,33.6,30.25,North,355,6.0,7.0,36,0.00,,,0.00,120,Wunderground v.1.15,2013-05-12 00:20:00,
2013-05-11 19:30:00,60.3,33.2,30.25,North,350,7.0,7.0,36,0.00,,,0.00,88,Wunderground v.1.15,2013-05-12 00:30:00,
2013-05-11 19:35:00,59.8,34.1,30.25,NNW,346,6.0,9.0,38,0.00,,,0.00,33,Wunderground v.1.15,2013-05-12 00:35:00,
2013-05-11 19:45:00,59.1,34.1,30.25,NNW,342,5.0,5.0,39,0.00,,,0.00,26,Wunderground v.1.15,2013-05-12 00:45:00,
2013-05-11 19:50:00,58.8,33.9,30.26,North,360,5.0,5.0,39,0.00,,,0.00,23,Wunderground v.1.15,2013-05-12 00:50:00,
2013-05-11 20:00:00,58.2,33.3,30.26,North,350,5.0,5.0,39,0.00,,,0.00,18,Wunderground v.1.15,2013-05-12 01:00:00,
2013-05-11 20:10:00,57.6,33.4,30.26,North,355,5.0,5.0,40,0.00,,,0.00,9,Wunderground v.1.15,2013-05-12 01:10:00,
2013-05-11 20:20:00,57.0,33.5,30.26,North,355,4.0,4.0,41,0.00,,,0.00,0,Wunderground v.1.15,2013-05-12 01:20:00,
2013-05-11 20:25:00,56.6,33.8,30.26,NNW,346,4.0,4.0,42,0.00,,,0.00,0,Wunderground v.1.15,2013-05-12 01:25:00,
2013-05-11 20:35:00,55.9,33.7,30.26,NNE,19,4.0,5.0,43,0.00,,,0.00,0,Wunderground v.1.15,2013-05-12 01:35:00,
2013-05-11 20:40:00,55.7,34.1,30.26,NNW,332,4.0,4.0,44,0.00,,,0.00,0,Wunderground v.1.15,2013-05-12 01:40:00,
2013-05-11 20:50:00,55.1,33.6,30.27,NNW,346,4.0,4.0,44,0.00,,,0.00,0,Wunderground v.1.15,2013-05-12 01:50:00,
2013-05-11 21:00:00,54.7,33.8,30.27,NNW,346,4.0,7.0,45,0.00,,,0.00,0,Wunderground v.1.15,2013-05-12 02:00:00,
2013-05-11 21:10:00,54.2,33.3,30.28,NNE,19,4.0,4.0,45,0.00,,,0.00,0,Wunderground v.1.15,2013-05-12 02:10:00,
2013-05-11 21:20:00,53.8,32.4,30.28,NNE,20,3.0,3.0,44,0.00,,,0.00,0,Wunderground v.1.15,2013-05-12 02:20:00,
2013-05-11 21:25:00,53.4,33.1,30.24,North,5,3.0,3.0,46,0.00,,,0.00,0,Wunderground v.1.15,2013-05-12 02:25:00,
2013-05-11 21:35:00,52.6,32.9,30.29,North,5,0.0,1.0,47,0.00,,,0.00,0,Wunderground v.1.15,2013-05-12 02:35:00,
2013-05-11 21:45:00,52.2,32.6,30.28,North,5,1.0,1.0,47,0.00,,,0.00,0,Wunderground v.1.15,2013-05-12 02:45:00,
2013-05-11 21:50:00,52.0,32.9,30.29,North,5,1.0,1.0,48,0.00,,,0.00,0,Wunderground v.1.15,2013-05-12 02:50:00,
2013-05-11 22:00:00,51.6,32.5,30.30,North,10,1.0,1.0,48,0.00,,,0.00,0,Wunderground v.1.15,2013-05-12 03:00:00,
2013-05-11 22:05:00,51.5,32.4,30.28,NNE,14,1.0,1.0,48,0.00,,,0.00,0,Wunderground v.1.15,2013-05-12 03:05:00,
2013-05-11 22:15:00,51.1,32.6,30.31,NNE,14,0.0,2.0,49,0.00,,,0.00,0,Wunderground v.1.15,2013-05-12 03:15:00,
2013-05-11 22:25:00,50.6,32.6,30.31,NNE,13,0.0,0.0,50,0.00,,,0.00,0,Wunderground v.1.15,2013-05-12 03:25:00,
2013-05-11 22:35:00,50.1,32.7,30.31,NNE,14,0.0,0.0,51,0.00,,,0.00,0,Wunderground v.1.15,2013-05-12 03:35:00,
2013-05-11 22:40:00,50.0,33.1,30.31,NNE,14,0.0,0.0,52,0.00,,,0.00,0,Wunderground v.1.15,2013-05-12 03:40:00,
2013-05-11 22:50:00,49.1,33.6,30.31,NNE,14,0.0,0.0,55,0.00,,,0.00,0,Wunderground v.1.15,2013-05-12 03:50:00,
2013-05-11 23:00:00,48.4,33.4,30.31,NNE,14,0.0,0.0,56,0.00,,,0.00,0,Wunderground v.1.15,2013-05-12 04:00:00,
2013-05-11 23:05:00,48.2,33.7,30.31,NNE,14,0.0,0.0,57,0.00,,,0.00,0,Wunderground v.1.15,2013-05-12 04:05:00,
2013-05-11 23:09:00,47.8,33.3,30.31,NNE,14,0.0,0.0,57,0.00,,,0.00,0,Wunderground v.1.15,2013-05-12 04:09:00,
2013-05-11 23:15:00,47.8,33.3,30.31,NNE,14,0.0,0.0,57,0.00,,,0.00,0,Wunderground v.1.15,2013-05-12 04:15:00,
2013-05-11 23:20:00,47.4,34.2,30.31,NNE,14,0.0,0.0,60,0.00,,,0.00,0,Wunderground v.1.15,2013-05-12 04:20:00,
2013-05-11 23:30:00,46.7,34.0,30.31,NNE,14,0.0,0.0,61,0.00,,,0.00,0,Wunderground v.1.15,2013-05-12 04:30:00,
2013-05-11 23:34:00,46.9,33.7,30.31,NNE,14,0.0,0.0,60,0.00,,,0.00,0,Wunderground v.1.15,2013-05-12 04:34:00,
2013-05-11 23:40:00,47.0,33.4,30.31,NNE,14,0.0,0.0,59,0.00,,,0.00,0,Wunderground v.1.15,2013-05-12 04:40:00,
2013-05-11 23:45:00,47.0,33.4,30.31,NNE,14,0.0,0.0,59,0.00,,,0.00,0,Wunderground v.1.15,2013-05-12 04:45:00,
2013-05-11 23:55:00,47.5,33.0,30.31,NNE,14,0.0,0.0,57,0.00,,,0.00,0,Wunderground v.1.15,2013-05-12 04:55:00,